Time;durP1;ratioP1;P1;durP2;ratioP2;P2;SDS_P1;SDS_P2;PMS_P1;PMS_P2;Temp;Humidity;BMP_temperature;BMP_pressure;BME280_temperature;BME280_humidity;BME280_pressure;Samples;Min_cycle;Max_cycle;Signal;HPM_P1;HPM_P2
2022/08/18 00:02:27;;;;;;;;;;;19.00;99.90;;;;;;5063843;28;19958;-33
2022/08/18 00:04:53;;;;;;;;;;;19.00;99.90;;;;;;5075038;28;19977;-30
2022/08/18 00:07:21;;;;;;;;;;;18.90;99.90;;;;;;5058208;28;19952;-33
2022/08/18 00:09:47;;;;;;;;;;;18.90;99.90;;;;;;5064568;28;20353;-31
2022/08/18 00:12:14;;;;;;;;;;;18.90;99.90;;;;;;5067932;28;19913;-30
2022/08/18 00:14:40;;;;;;;;;;;18.90;99.90;;;;;;5063145;28;19917;-30
2022/08/18 00:17:05;;;;;;;;;;;18.90;99.90;;;;;;5079656;28;20375;-32
2022/08/18 00:19:31;;;;;;;;;;;18.90;99.90;;;;;;5059585;28;20355;-33
2022/08/18 00:21:57;;;;;;;;;;;18.90;99.90;;;;;;5069447;28;19923;-32
2022/08/18 00:24:22;;;;;;;;;;;18.90;99.90;;;;;;5067178;28;19966;-33
2022/08/18 00:26:48;;;;;;;;;;;19.00;99.90;;;;;;5069565;28;20211;-31
2022/08/18 00:29:13;;;;;;;;;;;19.00;99.90;;;;;;5068767;28;19916;-30
2022/08/18 00:31:39;;;;;;;;;;;19.00;99.90;;;;;;5063086;28;19923;-31
2022/08/18 00:34:06;;;;;;;;;;;19.00;99.90;;;;;;5070129;28;19908;-31
2022/08/18 00:36:33;;;;;;;;;;;19.00;99.90;;;;;;5070669;28;19909;-33
2022/08/18 00:38:59;;;;;;;;;;;18.90;99.90;;;;;;5068844;28;20029;-32
2022/08/18 00:41:25;;;;;;;;;;;18.90;99.90;;;;;;5068382;28;19959;-46
2022/08/18 00:43:51;;;;;;;;;;;18.90;99.90;;;;;;5055680;28;20011;-30
2022/08/18 00:46:22;;;;;;;;;;;18.90;99.90;;;;;;5061673;28;19921;-33
2022/08/18 00:48:48;;;;;;;;;;;18.90;99.90;;;;;;5070610;28;20363;-33
2022/08/18 00:51:19;;;;;;;;;;;18.90;99.90;;;;;;5066300;28;20379;-30
2022/08/18 00:53:49;;;;;;;;;;;18.90;99.90;;;;;;5070055;28;20382;-29
2022/08/18 00:56:25;;;;;;;;;;;18.90;99.90;;;;;;5068297;28;19913;-32
2022/08/18 00:58:54;;;;;;;;;;;18.90;99.90;;;;;;5066482;28;19912;-31
2022/08/18 01:01:22;;;;;;;;;;;18.90;99.90;;;;;;5054203;28;20372;-37
2022/08/18 01:03:52;;;;;;;;;;;18.80;99.90;;;;;;5064119;28;19913;-32
2022/08/18 01:06:31;;;;;;;;;;;18.70;99.90;;;;;;5059943;28;19920;-30
2022/08/18 01:08:57;;;;;;;;;;;18.70;99.90;;;;;;5052710;28;20631;-32
2022/08/18 01:11:23;;;;;;;;;;;18.70;99.90;;;;;;5068659;28;19986;-32
2022/08/18 01:13:49;;;;;;;;;;;18.70;99.90;;;;;;5067995;28;19919;-35
2022/08/18 01:21:52;;;;;;;;;;;18.70;99.90;;;;;;5074202;28;20295;-31
2022/08/18 01:25:58;;;;;;;;;;;18.70;99.90;;;;;;5062834;28;20381;-33
2022/08/18 01:27:13;;;;;;;;;;;18.70;99.90;;;;;;5063416;28;19967;-32
2022/08/18 01:29:39;;;;;;;;;;;18.70;99.90;;;;;;5074066;28;19962;-30
2022/08/18 01:32:05;;;;;;;;;;;18.70;99.90;;;;;;5071538;28;19912;-35
2022/08/18 01:34:30;;;;;;;;;;;18.70;99.90;;;;;;5073912;28;19915;-30
2022/08/18 01:36:56;;;;;;;;;;;18.70;99.90;;;;;;5070036;28;20440;-35
2022/08/18 01:39:22;;;;;;;;;;;18.70;99.90;;;;;;5057583;28;20008;-37
2022/08/18 01:41:47;;;;;;;;;;;18.70;99.90;;;;;;5068972;28;20356;-30
2022/08/18 01:44:13;;;;;;;;;;;18.70;99.90;;;;;;5071257;28;19924;-33
2022/08/18 01:46:40;;;;;;;;;;;18.70;99.90;;;;;;5067769;28;19924;-32
2022/08/18 01:49:07;;;;;;;;;;;18.70;99.90;;;;;;5060434;28;19934;-32
2022/08/18 01:51:33;;;;;;;;;;;18.70;99.90;;;;;;5065999;28;19913;-31
2022/08/18 01:53:59;;;;;;;;;;;18.80;99.90;;;;;;5062133;28;19913;-31
2022/08/18 01:56:28;;;;;;;;;;;18.80;99.90;;;;;;5069198;28;19912;-32
2022/08/18 01:58:54;;;;;;;;;;;18.80;99.90;;;;;;5062300;28;20359;-33
2022/08/18 02:01:21;;;;;;;;;;;18.80;99.90;;;;;;5069772;28;19920;-50
2022/08/18 02:03:49;;;;;;;;;;;18.80;99.90;;;;;;5068844;28;19912;-30
2022/08/18 02:06:17;;;;;;;;;;;18.70;99.90;;;;;;5072636;28;19927;-33
2022/08/18 02:08:43;;;;;;;;;;;18.70;99.90;;;;;;5074071;28;19912;-30
2022/08/18 02:11:08;;;;;;;;;;;18.60;99.90;;;;;;5071156;28;20384;-31
2022/08/18 02:13:34;;;;;;;;;;;18.60;99.90;;;;;;5070963;28;19916;-34
2022/08/18 02:16:00;;;;;;;;;;;18.60;99.90;;;;;;5063971;28;19979;-30
2022/08/18 02:18:27;;;;;;;;;;;18.60;99.90;;;;;;5060436;28;20016;-36
2022/08/18 02:20:53;;;;;;;;;;;18.60;99.90;;;;;;5071469;28;20015;-36
2022/08/18 02:23:19;;;;;;;;;;;18.60;99.90;;;;;;5066760;28;19999;-30
2022/08/18 02:25:44;;;;;;;;;;;18.60;99.90;;;;;;5071003;28;19923;-30
2022/08/18 02:28:10;;;;;;;;;;;18.60;99.90;;;;;;5060039;28;19917;-34
2022/08/18 02:30:38;;;;;;;;;;;18.60;99.90;;;;;;5070002;28;20474;-31
2022/08/18 02:33:07;;;;;;;;;;;18.70;99.90;;;;;;5065930;28;20427;-31
2022/08/18 02:35:33;;;;;;;;;;;18.70;99.90;;;;;;5065308;28;19912;-34
2022/08/18 02:37:59;;;;;;;;;;;18.70;99.90;;;;;;5065729;28;20371;-30
2022/08/18 02:40:25;;;;;;;;;;;18.60;99.90;;;;;;5061845;28;19920;-30
2022/08/18 02:42:51;;;;;;;;;;;18.70;99.90;;;;;;5059939;28;19912;-38
2022/08/18 02:45:17;;;;;;;;;;;18.70;99.90;;;;;;5064724;28;19927;-36
2022/08/18 02:47:43;;;;;;;;;;;18.70;99.90;;;;;;5063973;28;19991;-34
2022/08/18 02:50:09;;;;;;;;;;;18.70;99.90;;;;;;5071230;28;19974;-36
2022/08/18 02:52:34;;;;;;;;;;;18.80;99.90;;;;;;5068298;28;19916;-37
2022/08/18 02:55:00;;;;;;;;;;;18.80;99.90;;;;;;5071588;28;19927;-36
2022/08/18 02:57:26;;;;;;;;;;;18.80;99.90;;;;;;5064170;28;20616;-37
2022/08/18 02:59:52;;;;;;;;;;;18.80;99.90;;;;;;5060678;28;19955;-38
2022/08/18 03:02:17;;;;;;;;;;;18.70;99.90;;;;;;5062437;28;20372;-36
2022/08/18 03:04:43;;;;;;;;;;;18.70;99.90;;;;;;5059277;28;19975;-36
2022/08/18 03:07:08;;;;;;;;;;;18.70;99.90;;;;;;5065952;28;19917;-36
2022/08/18 03:09:34;;;;;;;;;;;18.60;99.90;;;;;;5063601;28;20450;-37
2022/08/18 03:11:59;;;;;;;;;;;18.60;99.90;;;;;;5069065;28;19913;-37
2022/08/18 03:14:25;;;;;;;;;;;18.60;99.90;;;;;;5070463;28;19912;-41
2022/08/18 03:16:51;;;;;;;;;;;18.50;99.90;;;;;;5071063;28;19913;-36
2022/08/18 03:19:16;;;;;;;;;;;18.50;99.90;;;;;;5069800;28;19970;-37
2022/08/18 03:21:43;;;;;;;;;;;18.40;99.90;;;;;;5057864;28;19977;-35
2022/08/18 03:24:09;;;;;;;;;;;18.40;99.90;;;;;;5063094;28;19947;-56
2022/08/18 03:26:34;;;;;;;;;;;18.30;99.90;;;;;;5068119;28;19992;-39
2022/08/18 03:29:00;;;;;;;;;;;18.30;99.90;;;;;;5071775;28;19913;-36
2022/08/18 03:31:26;;;;;;;;;;;18.30;99.90;;;;;;5069286;28;19928;-37
2022/08/18 03:33:52;;;;;;;;;;;18.30;99.90;;;;;;5062964;28;19998;-39
2022/08/18 03:36:19;;;;;;;;;;;18.20;99.90;;;;;;5059362;28;20383;-36
2022/08/18 03:38:45;;;;;;;;;;;18.20;99.90;;;;;;5062075;28;20296;-36
2022/08/18 03:41:12;;;;;;;;;;;18.20;99.90;;;;;;5067350;28;19916;-38
2022/08/18 03:43:38;;;;;;;;;;;18.20;99.90;;;;;;5062866;28;19912;-31
2022/08/18 03:46:05;;;;;;;;;;;18.20;99.90;;;;;;5063353;28;19990;-38
2022/08/18 03:48:32;;;;;;;;;;;18.20;99.90;;;;;;5070242;28;19908;-42
2022/08/18 03:51:07;;;;;;;;;;;18.20;99.90;;;;;;5065321;28;20003;-38
2022/08/18 03:53:36;;;;;;;;;;;18.20;99.90;;;;;;5054163;28;20284;-38
2022/08/18 03:56:05;;;;;;;;;;;18.20;99.90;;;;;;5063875;28;20279;-33
2022/08/18 03:58:31;;;;;;;;;;;18.20;99.90;;;;;;5064944;28;19959;-39
2022/08/18 04:00:56;;;;;;;;;;;18.20;99.90;;;;;;5069415;28;19913;-38
2022/08/18 04:03:22;;;;;;;;;;;18.30;99.90;;;;;;5060130;28;19912;-47
2022/08/18 04:05:47;;;;;;;;;;;18.30;99.90;;;;;;5070258;28;19962;-39
2022/08/18 04:08:13;;;;;;;;;;;18.30;99.90;;;;;;5067973;28;20992;-38
2022/08/18 04:10:38;;;;;;;;;;;18.30;99.90;;;;;;5069696;28;20390;-38
2022/08/18 04:13:04;;;;;;;;;;;18.30;99.90;;;;;;5068844;28;19920;-40
2022/08/18 04:15:30;;;;;;;;;;;18.30;99.90;;;;;;5069421;28;19963;-38
2022/08/18 04:18:02;;;;;;;;;;;18.20;99.90;;;;;;5069761;28;19958;-38
2022/08/18 04:20:28;;;;;;;;;;;18.20;99.90;;;;;;5062544;28;20721;-37
2022/08/18 04:22:54;;;;;;;;;;;18.20;99.90;;;;;;5066251;28;19912;-40
2022/08/18 04:25:20;;;;;;;;;;;18.20;99.90;;;;;;5066941;28;19963;-39
2022/08/18 04:27:46;;;;;;;;;;;18.20;99.90;;;;;;5053362;28;20372;-40
2022/08/18 04:30:11;;;;;;;;;;;18.20;99.90;;;;;;5060614;28;19908;-39
2022/08/18 04:32:38;;;;;;;;;;;18.20;99.90;;;;;;5065337;28;20039;-38
2022/08/18 04:35:04;;;;;;;;;;;18.30;99.90;;;;;;5059905;28;19909;-37
2022/08/18 04:37:31;;;;;;;;;;;18.30;99.90;;;;;;5056501;28;19919;-37
2022/08/18 04:39:58;;;;;;;;;;;18.20;99.90;;;;;;5064168;28;19991;-38
2022/08/18 04:42:24;;;;;;;;;;;18.20;99.90;;;;;;5069974;28;19912;-37
2022/08/18 04:44:50;;;;;;;;;;;18.20;99.90;;;;;;5061965;28;19916;-39
2022/08/18 04:47:16;;;;;;;;;;;18.20;99.90;;;;;;5079008;28;20402;-37
2022/08/18 04:49:43;;;;;;;;;;;18.20;99.90;;;;;;5069193;28;19912;-38
2022/08/18 04:54:53;;;;;;;;;;;18.20;99.90;;;;;;5068653;28;19923;-37
2022/08/18 04:57:19;;;;;;;;;;;18.20;99.90;;;;;;5070276;28;19908;-41
2022/08/18 04:59:46;;;;;;;;;;;18.30;99.90;;;;;;5062898;28;19951;-38
2022/08/18 05:02:13;;;;;;;;;;;18.30;99.90;;;;;;5064108;28;19913;-40
2022/08/18 05:04:40;;;;;;;;;;;18.30;99.90;;;;;;5065323;28;19928;-39
2022/08/18 05:07:09;;;;;;;;;;;18.30;99.90;;;;;;5071037;28;19913;-38
2022/08/18 05:09:35;;;;;;;;;;;18.30;99.90;;;;;;5061797;28;19917;-38
2022/08/18 05:12:02;;;;;;;;;;;18.40;99.90;;;;;;5060134;28;20394;-36
2022/08/18 05:14:28;;;;;;;;;;;18.40;99.90;;;;;;5063011;28;19913;-38
2022/08/18 05:16:56;;;;;;;;;;;18.40;99.90;;;;;;5069001;28;19960;-38
2022/08/18 05:19:22;;;;;;;;;;;18.40;99.90;;;;;;5068012;28;20003;-40
2022/08/18 05:21:48;;;;;;;;;;;18.40;99.90;;;;;;5063722;28;20444;-37
2022/08/18 05:24:14;;;;;;;;;;;18.40;99.90;;;;;;5063999;28;19916;-38
2022/08/18 05:26:40;;;;;;;;;;;18.40;99.90;;;;;;5069385;28;20442;-37
2022/08/18 05:29:06;;;;;;;;;;;18.40;99.90;;;;;;5053140;28;19913;-39
2022/08/18 05:31:32;;;;;;;;;;;18.50;99.90;;;;;;5065701;28;19916;-38
2022/08/18 05:34:00;;;;;;;;;;;18.50;99.90;;;;;;5063462;28;19913;-37
2022/08/18 05:36:34;;;;;;;;;;;18.50;99.90;;;;;;5070475;28;19913;-38
2022/08/18 05:39:30;;;;;;;;;;;18.50;99.90;;;;;;5085251;28;20011;-36
2022/08/18 05:42:01;;;;;;;;;;;18.60;99.90;;;;;;5061826;28;19958;-38
2022/08/18 05:44:27;;;;;;;;;;;18.60;99.90;;;;;;5062790;28;19931;-38
2022/08/18 05:46:56;;;;;;;;;;;18.70;99.90;;;;;;5068009;28;19938;-37
2022/08/18 05:49:23;;;;;;;;;;;18.70;99.90;;;;;;5061375;28;20374;-37
2022/08/18 05:51:51;;;;;;;;;;;18.70;99.90;;;;;;5069461;28;19913;-39
2022/08/18 05:57:21;;;;;;;;;;;18.80;99.90;;;;;;5059760;28;19919;-37
2022/08/18 05:59:47;;;;;;;;;;;18.90;99.90;;;;;;5068378;28;20256;-38
2022/08/18 06:02:21;;;;;;;;;;;18.90;99.90;;;;;;5064599;28;19919;-37
2022/08/18 06:04:51;;;;;;;;;;;18.90;99.90;;;;;;5069732;28;19919;-37
2022/08/18 06:07:21;;;;;;;;;;;19.00;99.90;;;;;;5072338;28;20280;-37
2022/08/18 06:09:46;;;;;;;;;;;19.00;99.90;;;;;;5069219;28;19995;-41
2022/08/18 06:12:21;;;;;;;;;;;19.00;99.90;;;;;;5061880;28;19943;-36
2022/08/18 06:14:47;;;;;;;;;;;19.00;99.90;;;;;;5060529;28;20356;-35
2022/08/18 06:17:15;;;;;;;;;;;19.10;99.90;;;;;;5069734;28;20007;-37
2022/08/18 06:20:10;;;;;;;;;;;19.10;99.90;;;;;;5061528;28;19912;-37
2022/08/18 06:22:43;;;;;;;;;;;19.20;99.90;;;;;;5063552;28;19913;-38
2022/08/18 06:25:20;;;;;;;;;;;19.20;99.90;;;;;;5065721;28;19912;-37
2022/08/18 06:27:54;;;;;;;;;;;19.30;99.90;;;;;;5065945;28;19918;-38
2022/08/18 06:30:40;;;;;;;;;;;19.30;99.90;;;;;;5064394;28;19912;-40
2022/08/18 06:33:28;;;;;;;;;;;19.40;99.90;;;;;;5065631;28;19916;-38
2022/08/18 06:35:59;;;;;;;;;;;19.50;99.90;;;;;;5069537;28;19912;-39
2022/08/18 06:38:44;;;;;;;;;;;19.60;99.90;;;;;;5065698;28;19921;-49
2022/08/18 06:41:09;;;;;;;;;;;19.80;99.90;;;;;;5070036;28;19995;-38
2022/08/18 06:43:42;;;;;;;;;;;19.80;99.90;;;;;;5055731;28;19952;-39
2022/08/18 06:46:14;;;;;;;;;;;19.80;99.90;;;;;;5062057;28;20295;-39
2022/08/18 06:48:48;;;;;;;;;;;19.90;99.90;;;;;;5075915;28;20447;-38
2022/08/18 06:51:16;;;;;;;;;;;19.90;99.90;;;;;;5066574;28;19962;-40
2022/08/18 06:54:08;;;;;;;;;;;19.90;99.90;;;;;;5069520;28;19916;-61
2022/08/18 06:56:39;;;;;;;;;;;20.00;99.90;;;;;;5064877;28;20288;-37
2022/08/18 06:59:19;;;;;;;;;;;20.10;99.90;;;;;;5065374;28;19918;-34
2022/08/18 07:01:46;;;;;;;;;;;20.20;99.90;;;;;;5068946;28;20359;-38
2022/08/18 07:04:31;;;;;;;;;;;20.20;99.90;;;;;;5075785;28;19916;-47
2022/08/18 07:06:56;;;;;;;;;;;20.30;99.90;;;;;;5071061;28;20346;-40
2022/08/18 07:09:23;;;;;;;;;;;20.40;99.90;;;;;;5071140;28;19959;-33
2022/08/18 07:12:15;;;;;;;;;;;20.60;99.90;;;;;;5056886;28;19999;-41
2022/08/18 07:14:41;;;;;;;;;;;20.60;99.90;;;;;;5069216;28;19958;-38
2022/08/18 07:17:09;;;;;;;;;;;20.70;99.90;;;;;;5071758;28;20446;-38
2022/08/18 07:19:35;;;;;;;;;;;20.80;99.90;;;;;;5076418;28;20383;-62
2022/08/18 07:22:03;;;;;;;;;;;20.90;99.90;;;;;;5077493;28;20302;-37
2022/08/18 07:24:31;;;;;;;;;;;20.90;99.90;;;;;;5068775;28;19913;-36
2022/08/18 07:27:02;;;;;;;;;;;21.00;99.90;;;;;;5067451;28;19916;-35
2022/08/18 07:29:28;;;;;;;;;;;21.00;99.90;;;;;;5078763;28;20302;-40
2022/08/18 07:31:54;;;;;;;;;;;21.00;99.90;;;;;;5070477;28;19912;-48
2022/08/18 07:34:24;;;;;;;;;;;21.20;99.90;;;;;;5071187;28;19999;-40
2022/08/18 07:36:54;;;;;;;;;;;21.20;99.90;;;;;;5071125;28;19920;-40
2022/08/18 07:39:30;;;;;;;;;;;21.20;99.90;;;;;;5072337;28;19909;-38
2022/08/18 07:42:08;;;;;;;;;;;21.20;99.90;;;;;;5068026;28;19913;-38
2022/08/18 07:44:53;;;;;;;;;;;21.30;99.90;;;;;;5059325;28;20376;-38
2022/08/18 07:47:22;;;;;;;;;;;21.40;99.90;;;;;;5061679;28;20418;-32
2022/08/18 07:49:47;;;;;;;;;;;21.50;99.90;;;;;;5069363;28;19927;-34
2022/08/18 07:52:20;;;;;;;;;;;21.60;99.90;;;;;;5068515;28;19916;-32
2022/08/18 07:55:04;;;;;;;;;;;21.50;99.90;;;;;;5065430;28;19965;-32
2022/08/18 07:57:38;;;;;;;;;;;21.40;99.90;;;;;;5069333;28;20475;-48
2022/08/18 08:00:33;;;;;;;;;;;21.50;99.90;;;;;;5069808;28;19920;-30
2022/08/18 08:03:08;;;;;;;;;;;21.50;99.90;;;;;;5060995;28;20332;-30
2022/08/18 08:05:40;;;;;;;;;;;21.50;99.90;;;;;;5071723;28;19912;-31
2022/08/18 08:08:25;;;;;;;;;;;21.70;99.90;;;;;;5064773;28;20422;-30
2022/08/18 08:10:57;;;;;;;;;;;21.80;99.90;;;;;;5064537;28;19909;-36
2022/08/18 08:13:27;;;;;;;;;;;22.10;99.90;;;;;;5066630;28;19916;-40
2022/08/18 08:15:56;;;;;;;;;;;22.30;99.90;;;;;;5058544;28;20375;-37
2022/08/18 08:18:22;;;;;;;;;;;22.20;99.90;;;;;;5071746;28;20015;-37
2022/08/18 08:20:51;;;;;;;;;;;22.30;99.90;;;;;;5071134;28;20402;-38
2022/08/18 08:23:16;;;;;;;;;;;22.50;99.90;;;;;;5059735;28;19913;-39
2022/08/18 08:25:42;;;;;;;;;;;22.60;99.90;;;;;;5069173;28;20326;-37
2022/08/18 08:28:14;;;;;;;;;;;22.60;99.90;;;;;;5070676;28;19944;-50
2022/08/18 08:30:45;;;;;;;;;;;22.50;99.90;;;;;;5069351;28;19917;-63
2022/08/18 08:33:25;;;;;;;;;;;22.30;99.90;;;;;;5073667;22;19974;-74
2022/08/18 08:36:12;;;;;;;;;;;22.10;99.90;;;;;;5072024;28;19975;-79
2022/08/18 08:38:43;;;;;;;;;;;21.90;99.90;;;;;;5071279;28;21122;-75
2022/08/18 08:41:21;;;;;;;;;;;21.80;99.90;;;;;;5064351;28;19916;-75
2022/08/18 08:44:01;;;;;;;;;;;21.60;99.90;;;;;;5073266;28;19909;-76
2022/08/18 08:46:29;;;;;;;;;;;21.40;99.90;;;;;;5072066;28;19970;-71
2022/08/18 08:48:58;;;;;;;;;;;21.40;99.90;;;;;;5041008;28;19922;-76
2022/08/18 08:51:36;;;;;;;;;;;21.30;99.90;;;;;;5056890;28;20395;-74
2022/08/18 08:54:16;;;;;;;;;;;21.40;99.90;;;;;;5072277;28;19914;-74
2022/08/18 08:56:43;;;;;;;;;;;21.40;99.90;;;;;;5071362;28;19912;-74
2022/08/18 08:59:11;;;;;;;;;;;21.70;99.90;;;;;;5070415;28;19913;-73
2022/08/18 09:01:56;;;;;;;;;;;22.10;99.90;;;;;;5073962;28;20358;-75
2022/08/18 09:04:31;;;;;;;;;;;22.50;99.90;;;;;;5070797;28;19946;-73
2022/08/18 09:06:57;;;;;;;;;;;22.90;99.90;;;;;;5070868;28;19916;-74
2022/08/18 09:09:22;;;;;;;;;;;23.00;99.90;;;;;;5066024;28;20028;-72
2022/08/18 09:12:00;;;;;;;;;;;23.30;99.90;;;;;;5048371;28;20020;-76
2022/08/18 09:14:36;;;;;;;;;;;23.60;99.90;;;;;;5069823;28;19928;-73
2022/08/18 09:17:27;;;;;;;;;;;23.70;99.90;;;;;;5070525;28;19913;-73
2022/08/18 09:20:05;;;;;;;;;;;23.90;99.90;;;;;;5052764;28;19935;-73
2022/08/18 09:22:42;;;;;;;;;;;24.00;99.90;;;;;;5060147;28;19919;-73
2022/08/18 09:25:10;;;;;;;;;;;24.20;99.90;;;;;;5066211;28;19913;-73
2022/08/18 09:27:40;;;;;;;;;;;24.00;99.90;;;;;;5065555;28;20344;-74
2022/08/18 09:30:07;;;;;;;;;;;23.80;99.90;;;;;;5067964;28;20458;-73
2022/08/18 09:32:55;;;;;;;;;;;23.60;99.90;;;;;;5046738;28;19928;-74
2022/08/18 09:35:31;;;;;;;;;;;23.30;99.90;;;;;;5069189;28;19926;-72
2022/08/18 09:43:38;;;;;;;;;;;22.30;99.90;;;;;;5068932;28;19923;-76
2022/08/18 09:46:04;;;;;;;;;;;22.10;99.90;;;;;;5067562;28;19919;-75
2022/08/18 09:48:31;;;;;;;;;;;22.00;99.90;;;;;;5076654;28;19916;-75
2022/08/18 09:51:14;;;;;;;;;;;21.90;99.90;;;;;;5069532;28;20394;-73
2022/08/18 09:53:52;;;;;;;;;;;21.90;99.90;;;;;;5070245;28;19912;-74
2022/08/18 09:56:36;;;;;;;;;;;22.00;99.90;;;;;;5066713;28;20366;-74
2022/08/18 09:59:03;;;;;;;;;;;22.50;99.90;;;;;;5065443;28;19920;-74
2022/08/18 10:01:29;;;;;;;;;;;23.30;99.90;;;;;;5053169;28;20042;-75
2022/08/18 10:04:17;;;;;;;;;;;24.00;99.90;;;;;;5053891;28;19954;-74
2022/08/18 10:06:44;;;;;;;;;;;24.60;99.90;;;;;;5067394;28;19916;-73
2022/08/18 10:09:29;;;;;;;;;;;25.20;99.90;;;;;;5070964;28;20372;-73
2022/08/18 10:12:04;;;;;;;;;;;25.60;99.90;;;;;;5060644;28;19967;-74
2022/08/18 10:14:53;;;;;;;;;;;25.90;99.90;;;;;;5070949;28;19917;-74
2022/08/18 10:17:31;;;;;;;;;;;25.70;99.90;;;;;;5072459;28;19969;-74
2022/08/18 10:19:59;;;;;;;;;;;25.80;99.90;;;;;;5072787;28;19915;-75
2022/08/18 10:22:37;;;;;;;;;;;25.80;99.90;;;;;;5053759;28;19923;-74
2022/08/18 10:25:03;;;;;;;;;;;25.70;99.90;;;;;;5056682;28;19912;-74
2022/08/18 10:27:28;;;;;;;;;;;26.00;99.90;;;;;;5062080;28;19916;-74
2022/08/18 10:29:55;;;;;;;;;;;26.30;99.90;;;;;;5055357;28;19918;-74
2022/08/18 10:32:22;;;;;;;;;;;26.30;99.90;;;;;;5065476;28;19935;-72
2022/08/18 10:34:55;;;;;;;;;;;26.60;99.90;;;;;;5066247;28;20011;-72
2022/08/18 10:37:25;;;;;;;;;;;26.90;99.90;;;;;;5071332;28;19913;-72
2022/08/18 10:39:50;;;;;;;;;;;27.00;99.90;;;;;;5051119;28;20425;-73
2022/08/18 10:42:37;;;;;;;;;;;26.70;99.90;;;;;;5064608;28;19916;-73
2022/08/18 10:45:09;;;;;;;;;;;26.20;99.90;;;;;;5046557;28;19912;-73
2022/08/18 10:47:35;;;;;;;;;;;25.60;99.90;;;;;;5065873;28;20147;-73
2022/08/18 10:50:05;;;;;;;;;;;25.10;99.90;;;;;;5071794;28;19947;-74
2022/08/18 10:52:54;;;;;;;;;;;24.60;99.90;;;;;;5073824;28;19912;-73
2022/08/18 10:55:30;;;;;;;;;;;24.20;99.90;;;;;;5062355;28;19951;-74
2022/08/18 10:58:21;;;;;;;;;;;23.90;99.90;;;;;;5064650;28;19916;-74
2022/08/18 11:01:00;;;;;;;;;;;23.60;99.90;;;;;;5055292;28;20339;-73
2022/08/18 11:03:39;;;;;;;;;;;23.60;99.90;;;;;;5065033;28;19920;-73
2022/08/18 11:06:06;;;;;;;;;;;23.60;99.90;;;;;;5070649;28;19916;-74
2022/08/18 11:08:34;;;;;;;;;;;23.60;99.90;;;;;;5064620;28;19912;-73
2022/08/18 11:11:06;;;;;;;;;;;23.70;99.90;;;;;;5044308;28;19917;-72
2022/08/18 11:13:38;;;;;;;;;;;24.00;99.90;;;;;;5069050;28;19913;-73
2022/08/18 11:16:11;;;;;;;;;;;24.40;99.90;;;;;;5066296;28;19912;-73
2022/08/18 11:18:39;;;;;;;;;;;24.40;99.90;;;;;;5067146;28;19919;-74
2022/08/18 11:21:23;;;;;;;;;;;24.30;99.90;;;;;;5072715;28;19917;-75
2022/08/18 11:24:06;;;;;;;;;;;24.20;99.90;;;;;;5071354;28;19935;-74
2022/08/18 11:26:34;;;;;;;;;;;24.20;99.90;;;;;;5043450;28;19917;-74
2022/08/18 11:29:20;;;;;;;;;;;24.10;99.90;;;;;;5064939;28;19913;-72
2022/08/18 11:31:48;;;;;;;;;;;24.20;99.90;;;;;;5073208;28;19935;-73
2022/08/18 11:34:15;;;;;;;;;;;24.10;99.90;;;;;;5055110;28;20333;-73
2022/08/18 11:36:41;;;;;;;;;;;24.00;99.90;;;;;;5053095;28;19913;-74
2022/08/18 11:39:10;;;;;;;;;;;24.00;99.90;;;;;;5067259;28;19920;-75
2022/08/18 11:41:40;;;;;;;;;;;23.90;99.90;;;;;;5083625;28;20351;-73
2022/08/18 11:44:11;;;;;;;;;;;24.00;99.90;;;;;;5049404;28;19917;-77
2022/08/18 11:46:37;;;;;;;;;;;24.00;99.90;;;;;;5052494;28;19931;-74
2022/08/18 11:49:15;;;;;;;;;;;24.20;99.90;;;;;;5065592;28;19912;-75
2022/08/18 11:51:52;;;;;;;;;;;24.60;99.90;;;;;;5055452;28;19935;-75
2022/08/18 11:54:23;;;;;;;;;;;25.30;99.90;;;;;;5063254;28;19913;-74
2022/08/18 11:56:48;;;;;;;;;;;25.80;99.90;;;;;;5059150;28;20007;-73
2022/08/18 11:59:31;;;;;;;;;;;26.10;99.90;;;;;;5067515;28;20007;-73
2022/08/18 12:01:58;;;;;;;;;;;26.00;99.90;;;;;;5058522;28;19916;-74
2022/08/18 12:04:41;;;;;;;;;;;25.40;99.90;;;;;;5067569;28;19913;-75
2022/08/18 12:07:08;;;;;;;;;;;25.00;99.90;;;;;;5072297;28;19920;-76
2022/08/18 12:09:39;;;;;;;;;;;24.70;99.90;;;;;;5045244;28;19927;-75
2022/08/18 12:12:14;;;;;;;;;;;24.40;99.90;;;;;;5066634;28;19916;-76
2022/08/18 12:14:58;;;;;;;;;;;24.20;99.90;;;;;;5049294;28;19912;-75
2022/08/18 12:17:24;;;;;;;;;;;24.20;99.90;;;;;;5065598;28;19913;-76
2022/08/18 12:19:51;;;;;;;;;;;24.20;99.90;;;;;;5072219;28;19919;-74
2022/08/18 12:22:18;;;;;;;;;;;24.20;99.90;;;;;;5072502;28;19966;-74
2022/08/18 12:24:44;;;;;;;;;;;24.20;99.90;;;;;;5068887;28;19913;-76
2022/08/18 12:27:11;;;;;;;;;;;23.90;99.90;;;;;;5066635;28;19963;-74
2022/08/18 12:29:38;;;;;;;;;;;23.70;99.90;;;;;;5068782;28;21651;-76
2022/08/18 12:32:03;;;;;;;;;;;23.50;99.90;;;;;;5066789;28;20012;-76
2022/08/18 12:34:29;;;;;;;;;;;23.50;99.90;;;;;;5056436;28;19916;-75
2022/08/18 12:36:56;;;;;;;;;;;23.40;99.90;;;;;;5068248;28;19923;-74
2022/08/18 12:39:21;;;;;;;;;;;23.40;99.90;;;;;;5068250;28;20390;-74
2022/08/18 12:41:47;;;;;;;;;;;23.60;99.90;;;;;;5072077;28;19913;-76
2022/08/18 12:44:12;;;;;;;;;;;23.70;99.90;;;;;;5065797;28;19920;-77
2022/08/18 12:46:38;;;;;;;;;;;23.90;99.90;;;;;;5064853;28;19920;-76
2022/08/18 12:49:05;;;;;;;;;;;24.10;99.90;;;;;;5070302;28;19909;-76
2022/08/18 12:51:30;;;;;;;;;;;24.30;99.90;;;;;;5045094;28;19962;-76
2022/08/18 12:53:56;;;;;;;;;;;24.50;99.90;;;;;;5066268;28;20363;-72
2022/08/18 12:56:23;;;;;;;;;;;24.60;99.90;;;;;;5071768;28;20417;-73
2022/08/18 12:58:49;;;;;;;;;;;24.60;99.90;;;;;;5070414;28;19913;-73
2022/08/18 13:01:15;;;;;;;;;;;24.70;99.90;;;;;;5068671;28;19979;-73
2022/08/18 13:03:43;;;;;;;;;;;24.60;99.90;;;;;;5069324;28;20463;-73
2022/08/18 13:06:09;;;;;;;;;;;24.60;99.90;;;;;;5069128;28;19920;-73
2022/08/18 13:08:34;;;;;;;;;;;24.60;99.90;;;;;;5069354;28;21002;-76
2022/08/18 13:11:00;;;;;;;;;;;24.60;99.90;;;;;;5052789;28;21445;-73
2022/08/18 13:13:25;;;;;;;;;;;24.70;99.90;;;;;;5068552;28;19913;-74
2022/08/18 13:15:53;;;;;;;;;;;25.00;99.90;;;;;;5071681;28;19936;-74
2022/08/18 13:18:18;;;;;;;;;;;25.10;99.90;;;;;;5068071;28;19909;-73
2022/08/18 13:20:44;;;;;;;;;;;25.10;99.90;;;;;;5071651;28;20326;-74
2022/08/18 13:23:09;;;;;;;;;;;25.10;99.90;;;;;;5061731;28;19913;-76
2022/08/18 13:25:35;;;;;;;;;;;25.00;99.90;;;;;;5068954;28;19971;-75
2022/08/18 13:28:00;;;;;;;;;;;25.00;99.90;;;;;;5068140;28;19917;-79
2022/08/18 13:30:26;;;;;;;;;;;25.00;99.90;;;;;;5076748;28;19916;-77
2022/08/18 13:32:51;;;;;;;;;;;24.80;99.90;;;;;;5054592;28;20352;-78
2022/08/18 13:35:17;;;;;;;;;;;24.80;99.90;;;;;;5072196;28;19956;-78
2022/08/18 13:37:42;;;;;;;;;;;24.90;99.90;;;;;;5046839;28;19939;-77
2022/08/18 13:40:09;;;;;;;;;;;25.00;99.90;;;;;;5069150;28;19944;-77
2022/08/18 13:42:47;;;;;;;;;;;25.10;99.90;;;;;;5072702;28;19998;-77
2022/08/18 13:45:17;;;;;;;;;;;25.20;99.90;;;;;;5073128;28;20319;-80
2022/08/18 13:47:43;;;;;;;;;;;25.10;99.90;;;;;;5075659;28;20346;-80
2022/08/18 13:50:10;;;;;;;;;;;25.00;99.90;;;;;;5070735;28;20113;-77
2022/08/18 13:52:36;;;;;;;;;;;25.00;99.90;;;;;;5073580;28;19912;-74
2022/08/18 13:55:03;;;;;;;;;;;24.90;99.90;;;;;;5057615;28;19915;-74
2022/08/18 13:57:30;;;;;;;;;;;24.90;99.90;;;;;;5062698;28;19913;-75
2022/08/18 13:59:56;;;;;;;;;;;24.80;99.90;;;;;;5048211;28;19952;-75
2022/08/18 14:02:22;;;;;;;;;;;24.80;99.90;;;;;;5073082;28;19938;-74
2022/08/18 14:04:48;;;;;;;;;;;24.80;99.90;;;;;;5057136;28;19999;-75
2022/08/18 14:07:16;;;;;;;;;;;24.70;99.90;;;;;;5071955;28;19920;-76
2022/08/18 14:09:42;;;;;;;;;;;24.80;99.90;;;;;;5056739;28;19912;-77
2022/08/18 14:12:34;;;;;;;;;;;24.90;99.90;;;;;;5042574;28;20360;-76
2022/08/18 14:14:59;;;;;;;;;;;25.00;99.90;;;;;;5060200;28;19986;-76
2022/08/18 14:17:25;;;;;;;;;;;25.10;99.90;;;;;;5069390;28;20003;-76
2022/08/18 14:28:04;;;;;;;;;;;26.10;99.90;;;;;;5063270;28;19920;-76
2022/08/18 14:30:30;;;;;;;;;;;26.20;99.90;;;;;;5075151;28;19936;-76
2022/08/18 14:32:56;;;;;;;;;;;26.00;99.90;;;;;;5073811;28;19960;-76
2022/08/18 14:35:22;;;;;;;;;;;25.70;99.90;;;;;;5072955;28;19913;-76
2022/08/18 14:37:47;;;;;;;;;;;25.50;99.90;;;;;;5057059;28;19909;-76
2022/08/18 14:40:12;;;;;;;;;;;25.40;99.90;;;;;;5074323;28;20007;-76
2022/08/18 14:42:40;;;;;;;;;;;25.30;99.90;;;;;;5072435;28;19912;-75
2022/08/18 14:45:06;;;;;;;;;;;25.20;99.90;;;;;;5047505;28;19912;-75
2022/08/18 14:47:32;;;;;;;;;;;25.10;99.90;;;;;;5045650;28;20383;-77
2022/08/18 14:49:57;;;;;;;;;;;25.10;99.90;;;;;;5056627;28;19909;-76
2022/08/18 14:52:24;;;;;;;;;;;24.80;99.90;;;;;;5072232;28;19963;-78
2022/08/18 14:54:50;;;;;;;;;;;24.70;99.90;;;;;;5062256;28;19999;-77
2022/08/18 14:57:15;;;;;;;;;;;24.80;99.90;;;;;;5073047;28;19952;-76